createdAt,value
2023-05-09T00:02:09.898Z,16.20
2023-05-09T00:04:36.560Z,16.10
2023-05-09T00:07:03.374Z,16.10
2023-05-09T00:09:30.012Z,16.10
2023-05-09T00:11:56.669Z,15.90
2023-05-09T00:14:24.833Z,16.00
2023-05-09T00:16:51.773Z,16.00
2023-05-09T00:19:18.488Z,16.00
2023-05-09T00:21:45.088Z,15.90
2023-05-09T00:24:11.693Z,15.80
2023-05-09T00:26:38.368Z,15.90
2023-05-09T00:29:05.119Z,15.90
2023-05-09T00:31:31.813Z,15.80
2023-05-09T00:33:58.498Z,15.80
2023-05-09T00:36:25.480Z,15.80
2023-05-09T00:38:52.144Z,15.70
2023-05-09T00:41:18.822Z,15.70
2023-05-09T00:43:45.726Z,15.70
2023-05-09T00:46:12.573Z,15.70
2023-05-09T00:48:39.237Z,15.80
2023-05-09T00:51:06.097Z,15.70
2023-05-09T00:53:33.592Z,15.70
2023-05-09T00:56:01.034Z,15.60
2023-05-09T00:58:28.035Z,15.60
2023-05-09T01:00:54.631Z,15.60
2023-05-09T01:03:21.501Z,15.60
2023-05-09T01:06:22.607Z,15.50
2023-05-09T01:08:59.614Z,15.60
2023-05-09T01:11:39.291Z,15.50
2023-05-09T01:14:20.402Z,15.50
2023-05-09T01:17:10.701Z,15.50
2023-05-09T01:19:56.608Z,15.50
2023-05-09T01:22:31.974Z,15.40
2023-05-09T01:25:17.163Z,15.40
2023-05-09T01:28:05.629Z,15.40
2023-05-09T01:30:36.188Z,15.40
2023-05-09T01:33:06.322Z,15.40
2023-05-09T01:35:35.687Z,15.40
2023-05-09T01:38:09.436Z,15.40
2023-05-09T01:40:38.597Z,15.30
2023-05-09T01:43:08.383Z,15.30
2023-05-09T01:45:36.851Z,15.30
2023-05-09T01:48:04.416Z,15.30
2023-05-09T01:50:32.032Z,15.30
2023-05-09T01:53:01.267Z,15.30
2023-05-09T01:55:31.853Z,15.30
2023-05-09T01:57:59.831Z,15.30
2023-05-09T02:00:27.117Z,15.20
2023-05-09T02:02:54.921Z,15.20
2023-05-09T02:05:26.371Z,15.20
2023-05-09T02:07:54.739Z,15.20
2023-05-09T02:10:22.417Z,15.10
2023-05-09T02:12:49.089Z,15.10
2023-05-09T02:15:15.977Z,15.00
2023-05-09T02:17:42.929Z,15.10
2023-05-09T02:20:11.464Z,15.00
2023-05-09T02:22:39.927Z,15.00
2023-05-09T02:25:07.983Z,15.00
2023-05-09T02:27:35.164Z,14.90
2023-05-09T02:30:07.369Z,14.80
2023-05-09T02:32:35.570Z,14.80
2023-05-09T02:35:04.035Z,14.80
2023-05-09T02:37:31.241Z,14.80
2023-05-09T02:39:58.711Z,14.80
2023-05-09T02:42:26.918Z,14.80
2023-05-09T02:44:54.170Z,14.80
2023-05-09T02:47:21.774Z,14.80
2023-05-09T02:49:50.497Z,14.70
2023-05-09T02:52:17.143Z,14.80
2023-05-09T02:54:45.715Z,14.70
2023-05-09T02:57:12.383Z,14.80
2023-05-09T02:59:38.983Z,14.80
2023-05-09T03:02:05.678Z,14.70
2023-05-09T03:04:32.348Z,14.80
2023-05-09T03:06:59.140Z,14.70
2023-05-09T03:09:26.108Z,14.70
2023-05-09T03:11:52.750Z,14.70
2023-05-09T03:14:19.441Z,14.80
2023-05-09T03:16:46.055Z,14.70
2023-05-09T03:19:12.680Z,14.70
2023-05-09T03:21:39.534Z,14.70
2023-05-09T03:24:07.804Z,14.70
2023-05-09T03:26:35.717Z,14.70
2023-05-09T03:29:02.935Z,14.70
2023-05-09T03:31:29.768Z,14.70
2023-05-09T03:33:56.549Z,14.70
2023-05-09T03:36:24.819Z,14.70
2023-05-09T03:38:51.518Z,14.60
2023-05-09T03:41:18.863Z,14.70
2023-05-09T03:43:45.882Z,14.60
2023-05-09T03:46:12.558Z,14.60
2023-05-09T03:48:39.351Z,14.70
2023-05-09T03:51:06.045Z,14.70
2023-05-09T03:53:32.702Z,14.70
2023-05-09T03:55:59.430Z,14.60
2023-05-09T03:58:26.462Z,14.70
2023-05-09T04:00:53.681Z,14.70
2023-05-09T04:03:20.851Z,14.70
2023-05-09T04:05:47.620Z,14.70
2023-05-09T04:08:14.315Z,14.60
2023-05-09T04:10:40.980Z,14.60
2023-05-09T04:13:08.015Z,14.60
2023-05-09T04:15:34.690Z,14.70
2023-05-09T04:18:01.416Z,14.60
2023-05-09T04:20:28.287Z,14.60
2023-05-09T04:22:54.929Z,14.60
2023-05-09T04:25:21.565Z,14.70
2023-05-09T04:27:48.216Z,14.70
2023-05-09T04:30:15.651Z,14.70
2023-05-09T04:32:45.862Z,14.70
2023-05-09T04:35:18.057Z,14.60
2023-05-09T04:37:46.375Z,14.70
2023-05-09T04:40:13.450Z,14.60
2023-05-09T04:42:41.283Z,14.70
2023-05-09T04:45:09.451Z,14.60
2023-05-09T04:47:36.563Z,14.60
2023-05-09T04:50:03.533Z,14.60
2023-05-09T04:52:30.370Z,14.60
2023-05-09T04:54:57.165Z,14.60
2023-05-09T04:57:23.786Z,14.60
2023-05-09T04:59:50.564Z,14.60
2023-05-09T05:02:17.235Z,14.60
2023-05-09T05:04:43.925Z,14.70
2023-05-09T05:07:10.739Z,14.60
2023-05-09T05:09:37.401Z,14.70
2023-05-09T05:12:09.102Z,14.60
2023-05-09T05:14:36.404Z,14.70
2023-05-09T05:17:03.078Z,14.70
2023-05-09T05:19:29.781Z,14.80
2023-05-09T05:21:56.532Z,14.80
2023-05-09T05:24:23.193Z,14.90
2023-05-09T05:26:49.879Z,14.90
2023-05-09T05:29:17.567Z,14.90
2023-05-09T05:31:44.357Z,14.90
2023-05-09T05:34:11.059Z,14.90
2023-05-09T05:36:37.690Z,14.90
2023-05-09T05:39:04.538Z,15.00
2023-05-09T05:41:31.231Z,15.00
2023-05-09T05:43:57.803Z,15.00
2023-05-09T05:46:24.637Z,15.00
2023-05-09T05:48:51.336Z,15.00
2023-05-09T05:51:18.085Z,15.00
2023-05-09T05:53:44.746Z,15.00
2023-05-09T05:56:11.363Z,15.00
2023-05-09T05:58:38.278Z,15.00
2023-05-09T06:01:05.117Z,14.90
2023-05-09T06:03:32.153Z,14.90
2023-05-09T06:05:59.084Z,15.00
2023-05-09T06:08:25.805Z,15.00
2023-05-09T06:10:52.614Z,15.00
2023-05-09T06:13:19.242Z,15.00
2023-05-09T06:15:45.936Z,15.00
2023-05-09T06:18:12.777Z,15.00
2023-05-09T06:20:39.617Z,15.00
2023-05-09T06:23:06.424Z,15.00
2023-05-09T06:25:33.114Z,15.00
2023-05-09T06:27:59.774Z,15.00
2023-05-09T06:30:27.236Z,15.10
2023-05-09T06:32:58.181Z,15.10
2023-05-09T06:35:24.992Z,15.20
2023-05-09T06:37:51.616Z,15.20
2023-05-09T06:40:18.326Z,15.20
2023-05-09T06:42:45.610Z,15.10
2023-05-09T06:45:12.696Z,15.20
2023-05-09T06:47:39.642Z,15.20
2023-05-09T06:50:06.996Z,15.20
2023-05-09T06:52:33.627Z,15.30
2023-05-09T06:55:00.221Z,15.20
2023-05-09T06:57:27.106Z,15.20
2023-05-09T06:59:53.741Z,15.30
2023-05-09T07:02:20.552Z,15.30
2023-05-09T07:04:47.302Z,15.40
2023-05-09T07:07:13.971Z,15.40
2023-05-09T07:09:40.678Z,15.40
2023-05-09T07:12:07.694Z,15.30
2023-05-09T07:14:34.357Z,15.30
2023-05-09T07:17:18.189Z,15.30
2023-05-09T07:19:47.699Z,15.40
2023-05-09T07:22:14.460Z,15.30
2023-05-09T07:24:41.160Z,15.30
2023-05-09T07:27:07.876Z,15.30
2023-05-09T07:29:34.586Z,15.30
2023-05-09T07:32:01.560Z,15.30
2023-05-09T07:34:28.346Z,15.30
2023-05-09T07:36:55.019Z,15.30
2023-05-09T07:39:21.692Z,15.30
2023-05-09T07:41:48.885Z,15.40
2023-05-09T07:44:15.942Z,15.40
2023-05-09T07:46:42.886Z,15.50
2023-05-09T07:49:09.783Z,15.50
2023-05-09T07:51:36.631Z,15.50
2023-05-09T07:54:03.424Z,15.50
2023-05-09T07:56:30.092Z,15.50
2023-05-09T07:58:56.776Z,15.60
2023-05-09T08:01:23.402Z,15.70
2023-05-09T08:03:50.821Z,15.80
2023-05-09T08:06:17.685Z,15.80
2023-05-09T08:08:44.345Z,15.90
2023-05-09T08:11:10.990Z,15.90
2023-05-09T08:13:37.629Z,15.90
2023-05-09T08:16:04.610Z,16.00
2023-05-09T08:18:31.317Z,16.10
2023-05-09T08:20:59.534Z,16.20
2023-05-09T08:23:26.723Z,16.40
2023-05-09T08:25:54.577Z,16.50
2023-05-09T08:28:24.685Z,16.60
2023-05-09T08:30:52.035Z,16.70
2023-05-09T08:33:19.141Z,16.60
2023-05-09T08:35:49.986Z,16.50
2023-05-09T08:38:16.641Z,16.70
2023-05-09T08:40:43.454Z,16.60
2023-05-09T08:43:11.765Z,16.60
2023-05-09T08:45:47.379Z,16.60
2023-05-09T08:48:17.658Z,16.60
2023-05-09T08:50:45.142Z,16.60
2023-05-09T08:53:12.380Z,16.60
2023-05-09T08:55:39.512Z,16.80
2023-05-09T08:58:06.907Z,16.80
2023-05-09T09:00:33.980Z,16.80
2023-05-09T09:03:03.939Z,16.90
2023-05-09T09:05:41.180Z,16.80
2023-05-09T09:08:09.193Z,16.80
2023-05-09T09:10:39.042Z,16.70
2023-05-09T09:13:06.197Z,16.80
2023-05-09T09:15:37.661Z,16.80
2023-05-09T09:18:09.733Z,16.70
2023-05-09T09:20:44.968Z,16.90
2023-05-09T09:23:16.441Z,17.00
2023-05-09T09:25:46.494Z,17.10
2023-05-09T09:28:13.312Z,17.20
2023-05-09T09:30:48.236Z,17.20
2023-05-09T09:33:25.705Z,17.20
2023-05-09T09:35:54.681Z,17.30
2023-05-09T09:38:22.753Z,17.40
2023-05-09T09:40:54.779Z,17.40
2023-05-09T09:43:27.146Z,17.40
2023-05-09T09:45:54.560Z,17.40
2023-05-09T09:48:25.950Z,17.40
2023-05-09T09:50:55.974Z,17.40
2023-05-09T09:53:23.858Z,17.50
2023-05-09T09:55:52.030Z,17.40
2023-05-09T09:58:21.833Z,17.40
2023-05-09T10:01:03.754Z,17.30
2023-05-09T10:03:39.552Z,17.40
2023-05-09T10:06:11.006Z,17.40
2023-05-09T10:08:37.804Z,17.40
2023-05-09T10:11:04.568Z,17.40
2023-05-09T10:13:34.245Z,17.40
2023-05-09T10:16:01.761Z,17.50
2023-05-09T10:18:30.705Z,17.70
2023-05-09T10:21:03.838Z,18.00
2023-05-09T10:23:32.769Z,18.20
2023-05-09T10:26:22.907Z,18.40
2023-05-09T10:28:54.678Z,18.60
2023-05-09T10:31:29.415Z,18.70
2023-05-09T10:33:57.142Z,18.70
2023-05-09T10:36:24.218Z,18.70
2023-05-09T10:38:54.051Z,18.90
2023-05-09T10:41:24.386Z,18.90
2023-05-09T10:43:51.589Z,18.70
2023-05-09T10:46:18.954Z,18.60
2023-05-09T10:48:47.957Z,18.60
2023-05-09T10:51:14.794Z,18.60
2023-05-09T10:53:46.703Z,18.70
2023-05-09T10:56:33.220Z,18.90
2023-05-09T10:59:00.875Z,19.20
2023-05-09T11:01:37.239Z,19.30
2023-05-09T11:04:11.479Z,19.30
2023-05-09T11:06:51.784Z,19.20
2023-05-09T11:09:34.876Z,19.00
2023-05-09T11:12:10.120Z,19.00
2023-05-09T11:14:39.836Z,19.00
2023-05-09T11:17:08.983Z,19.10
2023-05-09T11:19:42.939Z,19.40
2023-05-09T11:22:21.285Z,19.40
2023-05-09T11:24:49.672Z,19.70
2023-05-09T11:27:20.418Z,19.80
2023-05-09T11:29:52.519Z,20.00
2023-05-09T11:32:27.646Z,19.90
2023-05-09T11:35:07.347Z,20.00
2023-05-09T11:37:34.042Z,19.80
2023-05-09T11:40:04.873Z,19.70
2023-05-09T11:42:32.481Z,19.50
2023-05-09T11:44:59.517Z,19.30
2023-05-09T11:47:28.848Z,19.20
2023-05-09T11:49:55.926Z,19.20
2023-05-09T11:52:22.552Z,19.10
2023-05-09T11:54:50.181Z,19.00
2023-05-09T11:57:17.885Z,18.90
2023-05-09T11:59:45.513Z,18.90
2023-05-09T12:02:12.937Z,18.80
2023-05-09T12:04:39.994Z,18.60
2023-05-09T12:07:07.142Z,18.70
2023-05-09T12:09:37.857Z,18.50
2023-05-09T12:12:11.765Z,18.40
2023-05-09T12:14:39.601Z,18.30
2023-05-09T12:17:09.809Z,18.30
2023-05-09T12:19:39.435Z,18.30
2023-05-09T12:22:06.913Z,18.40
2023-05-09T12:24:36.685Z,18.40
2023-05-09T12:27:04.938Z,18.40
2023-05-09T12:29:31.767Z,18.50
2023-05-09T12:31:59.200Z,18.60
2023-05-09T12:34:26.213Z,18.70
2023-05-09T12:36:53.454Z,18.70
2023-05-09T12:39:24.547Z,18.70
2023-05-09T12:42:01.102Z,18.70
2023-05-09T12:44:29.624Z,18.70
2023-05-09T12:47:04.089Z,18.80
2023-05-09T12:49:31.908Z,18.80
2023-05-09T12:52:03.006Z,18.80
2023-05-09T12:54:31.366Z,18.70
2023-05-09T12:56:58.564Z,18.70
2023-05-09T12:59:29.006Z,18.70
2023-05-09T13:02:02.110Z,18.70
2023-05-09T13:04:29.053Z,18.80
2023-05-09T13:06:57.578Z,18.90
2023-05-09T13:09:25.583Z,18.90
2023-05-09T13:11:52.777Z,18.90
2023-05-09T13:14:23.115Z,18.90
2023-05-09T13:16:49.846Z,18.90
2023-05-09T13:19:16.824Z,18.90
2023-05-09T13:21:43.562Z,18.80
2023-05-09T13:24:10.412Z,18.90
2023-05-09T13:26:37.127Z,18.90
2023-05-09T13:29:03.789Z,18.90
2023-05-09T13:31:31.069Z,18.80
2023-05-09T13:33:57.726Z,18.70
2023-05-09T13:36:24.400Z,18.70
2023-05-09T13:38:51.085Z,18.20
2023-05-09T13:41:21.638Z,18.00
2023-05-09T13:43:48.298Z,17.80
2023-05-09T13:46:15.173Z,17.70
2023-05-09T13:48:42.036Z,17.60
2023-05-09T13:51:09.931Z,17.50
2023-05-09T13:53:38.816Z,17.50
2023-05-09T13:56:07.528Z,17.40
2023-05-09T13:58:34.221Z,17.40
2023-05-09T14:01:00.888Z,17.40
2023-05-09T14:03:27.568Z,17.40
2023-05-09T14:05:54.263Z,17.40
2023-05-09T14:08:21.469Z,17.40
2023-05-09T14:10:48.218Z,17.40
2023-05-09T14:13:15.669Z,17.40
2023-05-09T14:15:42.513Z,17.60
2023-05-09T14:18:09.421Z,17.50
2023-05-09T14:20:37.487Z,17.70
2023-05-09T14:23:04.240Z,17.80
2023-05-09T14:25:30.941Z,17.70
2023-05-09T14:27:59.388Z,17.90
2023-05-09T14:30:26.669Z,17.90
2023-05-09T14:32:53.447Z,18.00
2023-05-09T14:35:20.836Z,18.00
2023-05-09T14:37:47.549Z,18.00
2023-05-09T14:40:14.715Z,18.00
2023-05-09T14:42:42.124Z,18.00
2023-05-09T14:45:12.003Z,18.00
2023-05-09T14:47:38.981Z,18.00
2023-05-09T14:50:07.280Z,17.80
2023-05-09T14:52:33.993Z,17.90
2023-05-09T14:55:00.686Z,18.00
2023-05-09T14:57:27.559Z,18.00
2023-05-09T14:59:54.227Z,18.10
2023-05-09T15:02:21.013Z,18.10
2023-05-09T15:04:47.686Z,18.10
2023-05-09T15:07:14.375Z,18.10
2023-05-09T15:09:41.764Z,18.20
2023-05-09T15:12:08.447Z,18.20
2023-05-09T15:14:35.040Z,18.20
2023-05-09T15:17:04.226Z,18.10
2023-05-09T15:19:32.333Z,18.20
2023-05-09T15:21:59.946Z,18.20
2023-05-09T15:24:29.659Z,18.10
2023-05-09T15:26:56.667Z,18.00
2023-05-09T15:29:23.389Z,18.00
2023-05-09T15:31:50.022Z,18.00
2023-05-09T15:34:16.943Z,17.80
2023-05-09T15:36:43.592Z,17.70
2023-05-09T15:39:10.503Z,17.60
2023-05-09T15:41:37.166Z,17.40
2023-05-09T15:44:03.827Z,17.40
2023-05-09T15:46:30.792Z,17.30
2023-05-09T15:48:58.377Z,17.30
2023-05-09T15:51:25.506Z,17.20
2023-05-09T15:53:52.135Z,17.10
2023-05-09T15:56:18.836Z,17.10
2023-05-09T15:58:45.771Z,17.00
2023-05-09T16:01:14.391Z,17.00
2023-05-09T16:03:41.908Z,17.00
2023-05-09T16:06:08.761Z,17.00
2023-05-09T16:08:35.428Z,16.90
2023-05-09T16:11:02.187Z,16.90
2023-05-09T16:13:29.889Z,16.90
2023-05-09T16:15:56.911Z,16.80
2023-05-09T16:18:23.800Z,16.90
2023-05-09T16:20:50.853Z,16.80
2023-05-09T16:23:17.555Z,16.80
2023-05-09T16:25:44.986Z,16.80
2023-05-09T16:28:11.748Z,16.90
2023-05-09T16:30:38.427Z,16.90
2023-05-09T16:33:05.102Z,16.80
2023-05-09T16:35:31.827Z,16.70
2023-05-09T16:37:58.484Z,16.70
2023-05-09T16:40:25.435Z,16.60
2023-05-09T16:42:53.610Z,16.60
2023-05-09T16:45:20.285Z,16.60
2023-05-09T16:47:47.027Z,16.60
2023-05-09T16:50:13.889Z,16.60
2023-05-09T16:52:40.695Z,16.60
2023-05-09T16:55:07.709Z,16.60
2023-05-09T16:57:34.467Z,16.70
2023-05-09T17:00:01.105Z,16.60
2023-05-09T17:02:27.781Z,16.60
2023-05-09T17:04:54.717Z,16.60
2023-05-09T17:07:21.481Z,16.70
2023-05-09T17:09:49.486Z,16.60
2023-05-09T17:12:18.104Z,16.50
2023-05-09T17:14:45.840Z,16.50
2023-05-09T17:17:13.531Z,16.40
2023-05-09T17:19:40.646Z,16.30
2023-05-09T17:22:07.887Z,16.40
2023-05-09T17:24:34.687Z,16.40
2023-05-09T17:27:01.762Z,16.40
2023-05-09T17:29:30.637Z,16.40
2023-05-09T17:32:00.561Z,16.30
2023-05-09T17:34:28.085Z,16.40
2023-05-09T17:36:54.788Z,16.40
2023-05-09T17:39:21.998Z,16.40
2023-05-09T17:41:48.611Z,16.30
2023-05-09T17:44:15.805Z,16.30
2023-05-09T17:46:42.831Z,16.20
2023-05-09T17:49:10.959Z,16.10
2023-05-09T17:51:37.695Z,16.10
2023-05-09T17:54:05.575Z,16.00
2023-05-09T17:56:32.375Z,16.00
2023-05-09T17:58:59.352Z,15.90
2023-05-09T18:01:26.578Z,15.90
2023-05-09T18:03:53.872Z,15.90
2023-05-09T18:06:20.738Z,15.90
2023-05-09T18:08:47.455Z,15.80
2023-05-09T18:11:14.942Z,15.80
2023-05-09T18:13:41.669Z,15.80
2023-05-09T18:16:08.368Z,15.80
2023-05-09T18:18:36.456Z,15.80
2023-05-09T18:21:04.936Z,15.70
2023-05-09T18:23:31.621Z,15.70
2023-05-09T18:25:58.308Z,15.70
2023-05-09T18:28:25.549Z,15.60
2023-05-09T18:30:54.567Z,15.70
2023-05-09T18:33:23.405Z,15.70
2023-05-09T18:35:50.661Z,15.60
2023-05-09T18:38:17.488Z,15.60
2023-05-09T18:40:44.295Z,15.50
2023-05-09T18:43:11.192Z,15.50
2023-05-09T18:45:38.041Z,15.50
2023-05-09T18:48:05.190Z,15.40
2023-05-09T18:50:32.327Z,15.40
2023-05-09T18:52:59.575Z,15.40
2023-05-09T18:55:26.203Z,15.40
2023-05-09T18:57:53.212Z,15.30
2023-05-09T19:00:19.992Z,15.30
2023-05-09T19:02:46.711Z,15.40
2023-05-09T19:05:13.624Z,15.40
2023-05-09T19:07:40.300Z,15.40
2023-05-09T19:10:10.250Z,15.40
2023-05-09T19:12:37.368Z,15.40
2023-05-09T19:15:05.230Z,15.40
2023-05-09T19:17:32.070Z,15.30
2023-05-09T19:19:59.282Z,15.30
2023-05-09T19:22:25.947Z,15.30
2023-05-09T19:24:52.602Z,15.20
2023-05-09T19:27:19.250Z,15.30
2023-05-09T19:29:47.499Z,15.20
2023-05-09T19:32:17.164Z,15.20
2023-05-09T19:34:43.908Z,15.20
2023-05-09T19:37:10.749Z,15.20
2023-05-09T19:39:37.458Z,15.20
2023-05-09T19:42:04.173Z,15.10
2023-05-09T19:44:30.956Z,15.10
2023-05-09T19:46:58.518Z,15.10
2023-05-09T19:49:25.832Z,15.00
2023-05-09T19:51:52.437Z,15.00
2023-05-09T19:54:19.048Z,15.00
2023-05-09T19:56:45.793Z,14.90
2023-05-09T19:59:12.453Z,14.90
2023-05-09T20:01:39.076Z,14.90
2023-05-09T20:04:07.341Z,14.90
2023-05-09T20:06:34.159Z,14.80
2023-05-09T20:09:00.932Z,14.90
2023-05-09T20:11:27.619Z,14.90
2023-05-09T20:13:54.355Z,14.80
2023-05-09T20:16:21.297Z,14.80
2023-05-09T20:18:49.473Z,14.80
2023-05-09T20:21:18.126Z,14.80
2023-05-09T20:23:44.855Z,14.70
2023-05-09T20:26:11.577Z,14.70
2023-05-09T20:28:38.325Z,14.70
2023-05-09T20:31:05.071Z,14.70
2023-05-09T20:33:31.818Z,14.70
2023-05-09T20:35:58.484Z,14.70
2023-05-09T20:38:25.470Z,14.70
2023-05-09T20:40:52.117Z,14.70
2023-05-09T20:43:19.733Z,14.70
2023-05-09T20:45:46.451Z,14.60
2023-05-09T20:48:13.650Z,14.60
2023-05-09T20:50:40.521Z,14.60
2023-05-09T20:53:07.291Z,14.60
2023-05-09T20:55:33.974Z,14.60
2023-05-09T20:58:00.661Z,14.70
2023-05-09T21:00:28.019Z,14.50
2023-05-09T21:02:58.262Z,14.60
2023-05-09T21:05:25.722Z,14.60
2023-05-09T21:07:52.449Z,14.60
2023-05-09T21:10:19.202Z,14.60
2023-05-09T21:12:46.023Z,14.60
2023-05-09T21:15:13.753Z,14.60
2023-05-09T21:17:40.659Z,14.60
2023-05-09T21:20:08.547Z,14.60
2023-05-09T21:22:35.282Z,14.60
2023-05-09T21:25:01.984Z,14.60
2023-05-09T21:27:31.324Z,14.50
2023-05-09T21:29:58.365Z,14.50
2023-05-09T21:32:25.149Z,14.50
2023-05-09T21:34:51.897Z,14.50
2023-05-09T21:37:18.573Z,14.50
2023-05-09T21:39:45.506Z,14.50
2023-05-09T21:42:12.395Z,14.50
2023-05-09T21:44:39.079Z,14.50
2023-05-09T21:47:05.786Z,14.40
2023-05-09T21:49:32.620Z,14.50
2023-05-09T21:51:59.476Z,14.40
2023-05-09T21:54:26.215Z,14.40
2023-05-09T21:56:52.895Z,14.40
2023-05-09T21:59:22.091Z,14.40
2023-05-09T22:01:49.480Z,14.30
2023-05-09T22:04:16.219Z,14.40
2023-05-09T22:06:43.112Z,14.40
2023-05-09T22:09:10.418Z,14.40
2023-05-09T22:11:37.620Z,14.40
2023-05-09T22:14:04.365Z,14.40
2023-05-09T22:16:31.045Z,14.40
2023-05-09T22:18:58.401Z,14.40
2023-05-09T22:21:25.005Z,14.30
2023-05-09T22:23:51.684Z,14.30
2023-05-09T22:26:18.358Z,14.40
2023-05-09T22:28:44.994Z,14.30
2023-05-09T22:31:11.647Z,14.30
2023-05-09T22:33:38.257Z,14.30
2023-05-09T22:36:05.711Z,14.30
2023-05-09T22:38:32.470Z,14.30
2023-05-09T22:40:59.132Z,14.30
2023-05-09T22:43:28.922Z,14.30
2023-05-09T22:46:00.405Z,14.30
2023-05-09T22:48:27.150Z,14.30
2023-05-09T22:50:53.810Z,14.30
2023-05-09T22:53:20.419Z,14.20
2023-05-09T22:55:47.061Z,14.30
2023-05-09T22:58:13.729Z,14.30
2023-05-09T23:00:40.508Z,14.30
2023-05-09T23:03:07.276Z,14.30
2023-05-09T23:05:34.065Z,14.20
2023-05-09T23:08:00.706Z,14.30
2023-05-09T23:10:27.641Z,14.30
2023-05-09T23:12:54.336Z,14.30
2023-05-09T23:15:21.019Z,14.30
2023-05-09T23:17:47.738Z,14.30
2023-05-09T23:20:14.616Z,14.30
2023-05-09T23:22:41.495Z,14.30
2023-05-09T23:25:08.770Z,14.40
2023-05-09T23:27:35.685Z,14.40
2023-05-09T23:30:02.475Z,14.40
2023-05-09T23:32:29.196Z,14.40
2023-05-09T23:34:55.868Z,14.40
2023-05-09T23:37:22.598Z,14.40
2023-05-09T23:39:49.308Z,14.40
2023-05-09T23:42:15.971Z,14.40
2023-05-09T23:44:42.698Z,14.40
2023-05-09T23:47:09.398Z,14.50
2023-05-09T23:49:36.017Z,14.50
2023-05-09T23:52:02.789Z,14.40
2023-05-09T23:54:29.595Z,14.30
2023-05-09T23:56:57.443Z,14.40
2023-05-09T23:59:24.629Z,14.40
